Latest Weather Observations for Goulburn Airport

IDN60901

Issued at 11:31 am EDT Monday 5 December 2016 (issued every 10 minutes, with the page automatically refreshed every 10 minutes)

About weather observations | Map of Canberra area stations | Latest observations for Canberra area | Other Formats
Station Details ID: 070330 Name: GOULBURN AIRPORT AWS Lat: -34.81 Lon: 149.73 Height: 640.0 m
Data from the previous 72 hours. | See also: Recent months at Goulburn Airport
Date/Time
EDT
Temp
°C
App
Temp
°C
Dew
Point
°C
Rel
Hum
%
Delta-T
°C
Wind Press
QNH
hPa
Press
MSL
hPa
Rain since
9am
mm
Dir  Spd
km/h
Gust
km/h
Spd
kts
Gust
kts
05/11:30am 28.6 25.1 13.3 39 9.3 W 24 33 13 18 1011.3 1009.0 0.0
05/11:00am 29.1 26.2 14.1 40 9.3 WNW 22 32 12 17 1011.6 1009.2 0.0
05/10:30am 28.6 27.5 15.2 44 8.4 WNW 15 24 8 13 1011.7 1009.3 0.0
05/10:00am 27.9 25.7 14.5 44 8.3 WNW 19 28 10 15 1011.7 1009.3 0.0
05/09:30am 26.8 26.9 15.5 50 7.1 W 9 17 5 9 1012.3 1009.9 0.0
05/09:00am 25.2 26.0 16.4 58 5.6 NNW 7 11 4 6 1012.5 1010.2 0.0
05/08:30am 24.8 24.8 16.2 58 5.4 NNW 11 15 6 8 1012.3 1009.9 0.0
05/08:00am 23.0 22.6 16.3 66 4.2 N 13 17 7 9 1012.0 1009.6 0.0
05/07:30am 21.9 23.0 17.1 74 3.0 NNW 7 9 4 5 1011.9 1009.5 0.0
05/07:00am 20.3 21.2 16.7 80 2.2 NE 7 11 4 6 1011.3 1009.0 0.0
05/06:30am 19.4 20.2 17.4 88 1.3 NE 9 13 5 7 1011.3 1009.0 0.0
05/06:00am 18.7 20.6 16.7 88 1.2 NNE 2 7 1 4 1011.6 1009.2 0.0
05/05:30am 19.7 19.7 17.3 86 1.5 NE 13 17 7 9 1012.2 1009.8 0.0
05/05:00am 19.7 21.9 17.5 87 1.4 NW 2 7 1 4 1013.0 1010.7 0.0
05/04:30am 20.0 19.2 17.2 84 1.8 SSW 17 24 9 13 1012.7 1010.4 0.0
05/04:00am 19.9 21.7 17.3 85 1.6 SW 4 13 2 7 1011.8 1009.4 0.0
05/03:30am 20.2 22.2 17.0 82 2.0 NNW 2 7 1 4 1011.6 1009.2 0.0
05/03:00am 20.8 22.4 16.8 78 2.5 W 4 7 2 4 1011.3 1009.0 0.0
05/02:30am 21.3 22.0 17.1 77 2.6 NE 9 13 5 7 1011.0 1008.7 0.0
05/02:00am 21.2 21.5 17.0 77 2.6 NE 11 17 6 9 1011.3 1009.0 0.0
05/01:30am 21.1 21.7 16.7 76 2.7 NNE 9 11 5 6 1012.0 1009.6 0.0
05/01:00am 21.9 22.2 17.1 74 3.0 ENE 11 15 6 8 1012.1 1009.7 0.0
05/12:30am 21.6 22.1 16.6 73 3.1 NE 9 11 5 6 1012.2 1009.8 0.0
05/12:00am 21.8 22.2 16.3 71 3.4 ENE 9 13 5 7 1012.3 1009.9 0.0
 
Date/Time
EDT
Temp
°C
App
Temp
°C
Dew
Point
°C
Rel
Hum
%
Delta-T
°C
Wind Press
QNH
hPa
Press
MSL
hPa
Rain since
9am
mm
Dir  Spd
km/h
Gust
km/h
Spd
kts
Gust
kts
04/11:30pm 21.9 22.8 16.2 70 3.5 NNE 6 9 3 5 1012.4 1010.1 0.0
04/11:00pm 22.5 22.1 16.3 68 3.9 NNE 13 17 7 9 1012.7 1010.4 0.0
04/10:30pm 23.6 22.0 16.1 62 4.7 NE 19 24 10 13 1012.9 1010.6 0.0
04/10:00pm 23.9 22.4 16.2 62 4.8 ENE 19 24 10 13 1012.8 1010.5 0.0
04/09:30pm 24.5 22.8 16.2 60 5.2 ENE 20 24 11 13 1013.1 1010.8 0.0
04/09:00pm 24.7 23.6 16.4 60 5.2 NE 17 20 9 11 1013.6 1011.2 0.0
04/08:30pm 23.2 22.9 12.8 52 6.1 NNE 6 11 3 6 1013.7 1011.3 0.0
04/08:00pm 23.8 23.5 13.4 52 6.2 SE 7 9 4 5 1013.5 1011.1 0.0
04/07:30pm 24.9 23.0 11.8 44 7.7 SSW 13 13 7 7 1013.7 1011.3 0.0
04/07:00pm 25.9 24.2 11.3 40 8.5 SW 11 13 6 7 1013.6 1011.2 0.0
04/06:30pm 27.1 24.8 10.3 35 9.7 SW 13 17 7 9 1013.4 1011.0 0.0
04/06:00pm 28.7 25.1 8.4 28 11.4 W 17 20 9 11 1013.0 1010.7 0.0
04/05:30pm 29.5 25.7 9.1 28 11.7 W 19 26 10 14 1013.0 1010.7 0.0
04/05:00pm 29.6 25.4 8.1 26 12.1 WNW 20 28 11 15 1013.4 1011.0 0.0
04/04:30pm 29.7 25.1 8.2 26 12.1 NW 22 28 12 15 1013.5 1011.1 0.0
04/04:00pm 30.0 25.6 9.0 27 12.0 NW 22 30 12 16 1013.6 1011.2 0.0
04/03:30pm 30.1 26.6 10.1 29 11.6 W 19 28 10 15 1013.8 1011.5 0.0
04/03:00pm 30.7 26.4 7.2 23 13.1 WNW 19 32 10 17 1013.9 1011.6 0.0
04/02:30pm 30.8 26.8 6.6 22 13.4 W 17 28 9 15 1014.2 1011.9 0.0
04/02:00pm 30.2 25.5 6.1 22 13.2 W 20 32 11 17 1014.6 1012.3 0.0
04/01:30pm 30.1 25.7 7.3 24 12.7 W 20 32 11 17 1015.1 1012.7 0.0
04/01:00pm 29.9 25.5 7.2 24 12.6 WSW 20 33 11 18 1015.3 1013.0 0.0
04/12:30pm 29.9 24.9 6.5 23 12.8 W 22 32 12 17 1015.4 1013.1 0.0
04/12:00pm 29.9 26.3 8.3 26 12.2 W 17 30 9 16 1015.6 1013.3 0.0
04/11:30am 28.8 26.9 10.5 32 10.7 W 11 22 6 12 1015.9 1013.6 0.0
04/11:00am 27.8 26.4 9.6 32 10.4 W 7 13 4 7 1016.1 1013.8 0.0
04/10:30am 26.6 25.9 13.3 43 8.0 N 9 15 5 8 1016.4 1014.1 0.0
04/10:00am 24.0 24.0 13.5 52 6.3 W 6 9 3 5 1016.8 1014.5 0.0
04/09:30am 22.5 22.6 13.8 58 5.2 SE 6 9 3 5 1017.0 1014.7 0.0
04/09:00am 20.4 20.4 13.6 65 4.0 ENE 6 9 3 5 1017.2 1014.9 0.0
04/08:30am 18.8 18.8 13.6 72 3.1 E 6 9 3 5 1017.6 1015.3 0.0
04/08:05am 17.1 16.9 13.0 77 2.4 NE 6 7 3 4 1017.6 1015.3 0.0
04/08:00am 17.5 17.4 13.4 77 2.4 ENE 6 7 3 4 1017.7 1015.4 0.0
04/07:30am 16.7 16.6 14.0 84 1.6 E 7 11 4 6 1017.6 1015.3 0.0
04/07:00am 15.6 15.6 13.6 88 1.2 N 6 11 3 6 1017.5 1015.2 0.0
04/06:30am 15.3 15.0 13.3 88 1.1 NE 7 11 4 6 1017.0 1014.7 0.0
04/06:00am 15.3 14.6 13.3 88 1.1 NNE 9 11 5 6 1016.9 1014.6 0.0
04/05:30am 15.5 14.8 13.3 87 1.3 NE 9 11 5 6 1017.0 1014.7 0.0
04/05:00am 15.6 14.9 13.3 86 1.3 NE 9 13 5 7 1016.9 1014.6 0.0
04/04:30am 15.8 14.5 13.6 87 1.3 NE 13 17 7 9 1016.7 1014.4 0.0
04/04:00am 16.0 15.1 13.7 86 1.3 NE 11 15 6 8 1016.8 1014.5 0.0
04/03:30am 16.1 14.8 13.6 85 1.4 NE 13 19 7 10 1016.8 1014.5 0.0
04/03:00am 16.3 15.0 13.8 85 1.5 NE 13 19 7 10 1017.0 1014.7 0.0
04/02:30am 16.2 14.9 13.7 85 1.5 NE 13 19 7 10 1017.2 1014.9 0.0
04/02:00am 16.2 15.4 13.9 86 1.3 NE 11 17 6 9 1017.5 1015.2 0.0
04/01:30am 16.0 15.6 14.0 88 1.2 E 9 13 5 7 1017.6 1015.3 0.0
04/01:00am 15.8 14.5 13.8 88 1.2 E 13 17 7 9 1017.8 1015.5 0.0
04/12:30am 15.8 15.3 13.8 88 1.2 ENE 9 15 5 8 1017.9 1015.7 0.0
04/12:00am 15.6 15.2 14.0 90 0.9 E 9 11 5 6 1017.9 1015.7 0.0
 
Date/Time
EDT
Temp
°C
App
Temp
°C
Dew
Point
°C
Rel
Hum
%
Delta-T
°C
Wind Press
QNH
hPa
Press
MSL
hPa
Rain since
9am
mm
Dir  Spd
km/h
Gust
km/h
Spd
kts
Gust
kts
03/11:30pm 14.9 14.4 13.8 93 0.6 SE 9 11 5 6 1018.0 1015.8 0.0
03/11:06pm 14.2 13.0 12.9 92 0.7 ESE 11 15 6 8 1017.9 1015.7 0.0
03/11:00pm 13.9 12.2 12.5 91 0.8 SE 13 15 7 8 1018.0 1015.8 0.0
03/10:30pm 14.6 13.0 12.8 89 1.0 SE 13 17 7 9 1017.8 1015.5 0.0
03/10:00pm 15.0 13.6 12.3 84 1.5 SE 11 15 6 8 1017.4 1015.1 0.0
03/09:30pm 16.3 14.8 13.0 81 1.9 SE 13 17 7 9 1017.1 1014.8 0.0
03/09:00pm 17.4 16.3 13.1 76 2.5 SE 11 17 6 9 1016.8 1014.5 0.0
03/08:30pm 18.5 17.2 13.8 74 2.8 SE 13 19 7 10 1016.2 1013.9 0.0
03/08:00pm 19.7 19.2 13.9 69 3.4 SE 9 13 5 7 1015.8 1013.5 0.0
03/07:30pm 22.3 20.5 14.4 61 4.8 E 17 28 9 15 1015.4 1013.1 0.0
03/07:19pm 22.9 21.0 14.2 58 5.3 E 17 22 9 12 1015.3 1013.0 0.0
03/07:00pm 27.9 24.3 4.9 23 12.2 WSW 13 19 7 10 1014.9 1012.5 0.0
03/06:30pm 28.6 23.4 5.5 23 12.4 WSW 22 35 12 19 1014.2 1011.9 0.0
03/06:00pm 29.0 24.6 7.6 26 11.9 W 20 32 11 17 1013.9 1011.6 0.0
03/05:30pm 29.6 24.6 8.1 26 12.1 WSW 24 33 13 18 1013.7 1011.3 0.0
03/05:00pm 29.3 24.9 8.9 28 11.6 W 22 33 12 18 1013.8 1011.5 0.0
03/04:30pm 29.8 25.8 6.5 23 12.8 W 17 30 9 16 1013.8 1011.5 0.0
03/04:00pm 29.5 24.2 8.5 27 11.9 WSW 26 43 14 23 1013.9 1011.6 0.0
03/03:30pm 29.6 22.9 5.6 22 13.0 WSW 30 50 16 27 1014.2 1011.9 0.0
03/03:28pm 29.6 22.9 5.6 22 13.0 WSW 30 50 16 27 1014.2 1011.9 0.0
03/03:00pm 29.8 22.3 3.7 19 13.7 W 32 46 17 25 1014.5 1012.2 0.0
03/02:30pm 29.2 24.6 6.6 24 12.4 W 20 32 11 17 1014.9 1012.5 0.0
03/02:10pm 28.8 23.2 5.6 23 12.5 W 24 48 13 26 1015.0 1012.6 0.0
03/02:00pm 27.4 23.2 5.6 25 11.6 W 17 30 9 16 1015.1 1012.7 0.0
03/01:35pm 28.3 26.9 13.4 40 9.1 W 13 43 7 23 1015.1 1012.7 0.0
03/01:30pm 27.1 25.4 9.9 34 9.8 SW 9 20 5 11 1015.2 1012.9 0.0
03/01:00pm 26.2 24.5 11.2 39 8.7 NNE 11 19 6 10 1015.6 1013.3 0.0
03/12:30pm 25.2 24.5 12.1 44 7.7 N 7 13 4 7 1016.0 1013.7 0.0
03/12:00pm 24.2 23.1 13.1 50 6.6 ESE 11 20 6 11 1016.6 1014.3 0.0
03/11:30am 23.2 22.4 12.8 52 6.1 E 9 17 5 9 1016.9 1014.6 0.0
03/11:00am 22.4 20.6 13.2 56 5.4 ENE 15 22 8 12 1017.0 1014.7 0.0
03/10:30am 21.3 19.2 12.4 57 5.2 NE 15 24 8 13 1017.2 1014.9 0.0
03/10:00am 20.2 18.1 12.4 61 4.5 NE 15 20 8 11 1017.3 1015.0 0.0
03/09:30am 19.5 17.1 12.5 64 4.0 ENE 17 24 9 13 1017.5 1015.2 0.0
03/09:00am 19.0 16.7 13.0 68 3.5 ENE 17 22 9 12 1017.4 1015.1 0.0
03/08:56am 18.9 16.5 12.6 67 3.6 ENE 17 22 9 12 1017.4 1015.1 0.0
03/08:30am 17.5 14.9 12.0 70 3.1 ENE 17 24 9 13 1017.4 1015.1 0.0
03/08:00am 17.1 14.9 12.2 73 2.8 ENE 15 22 8 12 1017.4 1015.1 0.0
03/07:30am 16.1 14.4 12.3 78 2.2 E 13 17 7 9 1017.2 1014.9 0.0
03/07:00am 15.8 13.7 12.5 81 1.9 NE 15 20 8 11 1017.0 1014.7 0.0
03/06:30am 15.5 13.8 12.3 81 1.8 ENE 13 19 7 10 1016.7 1014.4 0.0
03/06:00am 15.5 13.9 12.8 84 1.5 ENE 13 19 7 10 1016.3 1014.0 0.0
03/05:30am 15.5 14.2 12.6 83 1.6 ENE 11 15 6 8 1015.8 1013.5 0.0
03/05:00am 15.4 13.7 12.5 83 1.6 ENE 13 17 7 9 1015.5 1013.2 0.0
03/04:30am 15.5 13.8 12.6 83 1.6 ENE 13 17 7 9 1015.2 1012.9 0.0
03/04:00am 15.7 14.7 13.4 86 1.3 ENE 11 17 6 9 1015.0 1012.6 0.0
03/03:30am 15.6 15.6 14.3 92 0.8 E 7 11 4 6 1015.2 1012.9 0.0
03/03:00am 14.8 15.0 14.3 97 0.3 ESE 6 9 3 5 1015.0 1012.6 0.0
03/02:30am 14.1 14.1 13.6 97 0.3 SSE 6 9 3 5 1015.1 1012.7 0.0
03/02:00am 13.1 13.9 12.5 96 0.3 CALM 0 0 0 0 1015.5 1013.2 0.0
03/01:45am 12.2 12.6 11.3 94 0.5 CALM 0 0 0 0 1015.7 1013.4 0.0
03/01:30am 12.3 12.7 11.2 93 0.6 CALM 0 0 0 0 1015.7 1013.4 0.0
03/01:00am 12.8 12.9 11.4 91 0.8 SSE 2 6 1 3 1015.8 1013.5 0.0
03/12:55am 13.3 13.1 11.9 91 0.8 SE 4 7 2 4 1015.9 1013.6 0.0
03/12:33am 14.0 12.8 12.7 92 0.7 SE 11 13 6 7 1016.1 1013.8 0.0
03/12:30am 14.0 12.7 12.6 91 0.8 SE 11 13 6 7 1016.1 1013.8 0.0
03/12:00am 15.0 14.0 13.4 90 0.9 ESE 11 13 6 7 1016.2 1013.9 0.0
 
Date/Time
EDT
Temp
°C
App
Temp
°C
Dew
Point
°C
Rel
Hum
%
Delta-T
°C
Wind Press
QNH
hPa
Press
MSL
hPa
Rain since
9am
mm
Dir  Spd
km/h
Gust
km/h
Spd
kts
Gust
kts
02/11:30pm 15.2 14.8 12.9 86 1.3 SSE 7 9 4 5 1016.3 1014.0 0.0
02/11:00pm 16.0 15.6 12.9 82 1.8 SE 7 9 4 5 1016.1 1013.8 0.0
02/10:30pm 16.6 15.4 11.5 72 2.9 E 9 13 5 7 1015.9 1013.6 0.0
02/10:00pm 19.0 15.8 8.4 50 5.7 SSE 15 24 8 13 1015.6 1013.3 0.0
02/09:30pm 18.2 15.0 7.0 48 5.8 NW 13 13 7 7 1015.1 1012.7 0.0
02/09:00pm 19.7 16.5 6.8 43 6.7 NW 13 13 7 7 1014.5 1012.2 0.0
02/08:30pm 20.1 16.8 6.5 41 7.1 NW 13 15 7 8 1014.1 1011.8 0.0
02/08:00pm 22.0 18.6 5.8 35 8.4 NW 13 15 7 8 1013.8 1011.5 0.0
02/07:30pm 23.5 19.7 5.9 32 9.2 WNW 15 20 8 11 1013.5 1011.1 0.0
02/07:00pm 24.5 19.6 5.3 29 10.0 WNW 20 28 11 15 1013.1 1010.8 0.0
02/06:30pm 26.2 19.7 4.6 25 11.2 WNW 28 37 15 20 1012.7 1010.4 0.0
02/06:00pm 26.6 20.2 5.0 25 11.4 WNW 28 41 15 22 1012.6 1010.3 0.0
02/05:30pm 26.0 19.8 4.5 25 11.2 WNW 26 35 14 19 1012.6 1010.3 0.0
02/05:00pm 26.9 19.5 4.0 23 11.9 WNW 32 48 17 26 1012.4 1010.1 0.0
02/04:30pm 27.0 19.2 4.7 24 11.7 W 35 56 19 30 1012.6 1010.3 0.0
02/04:28pm 27.0 19.1 4.1 23 11.9 W 35 56 19 30 1012.4 1010.1 0.0
02/04:00pm 26.6 20.2 5.0 25 11.4 W 28 39 15 21 1012.5 1010.2 0.0
02/03:30pm 26.9 20.7 6.3 27 11.1 WNW 28 43 15 23 1012.6 1010.3 0.0
02/03:00pm 27.1 20.5 6.0 26 11.3 W 30 43 16 23 1012.7 1010.4 0.0
02/02:30pm 27.0 19.9 6.4 27 11.1 W 33 44 18 24 1012.7 1010.4 0.0
02/02:00pm 27.1 19.2 4.2 23 11.9 WNW 35 46 19 25 1012.3 1009.9 0.0
02/01:30pm 28.2 20.1 5.1 23 12.3 WNW 37 54 20 29 1012.1 1009.7 0.0
02/01:06pm 27.3 19.4 4.4 23 12.0 WNW 35 54 19 29 1012.1 1009.7 0.0
02/01:00pm 27.3 18.7 4.4 23 12.0 W 39 54 21 29 1012.0 1009.6 0.0
02/12:55pm 27.4 19.4 3.8 22 12.2 W 35 54 19 29 1012.0 1009.6 0.0
02/12:47pm 27.6 19.5 5.2 24 11.9 WNW 37 50 20 27 1012.0 1009.6 0.0
02/12:44pm 27.4 18.8 4.5 23 12.0 WNW 39 50 21 27 1011.8 1009.4 0.0
02/12:30pm 27.7 19.6 5.3 24 11.9 W 37 52 20 28 1012.0 1009.6 0.0
02/12:00pm 26.9 18.0 5.2 25 11.5 W 41 59 22 32 1011.8 1009.4 0.0
02/11:56am 27.2 19.0 4.9 24 11.7 W 37 57 20 31 1011.8 1009.4 0.0

Latest Capital City Observations: Canberra | Sydney | Melbourne | Brisbane | Adelaide | Perth | Hobart | Darwin

Other Formats:

Comma delimited format used in spreadsheet applications
http://www.bom.gov.au/fwo/IDN60903/IDN60903.95716.axf

JavaScript Object Notation format (JSON) in row-major order
http://www.bom.gov.au/fwo/IDN60903/IDN60903.95716.json